Shawbury (EGOS)

METAR

EGOS 201550Z AUTO 09006KT 9999 NCD 22/05 Q1029

QNH
1029
TEMP
22 °C
TAF

TAF EGOS 180646Z 1718/1823 CNL